Terminal Aerodrome Forecast
Issued by NWS Duluth, MN

Home | Current Version | Previous Version | Text Only | Print | Product List | Glossary On
Versions: 1 2 3 4 5 6 7 8 9 10 11 12 13 14 15 16 17 18
000
FTUS43 KDLH 031134
TAFDLH
TAF
KDLH 031134Z 0312/0412 26012KT P6SM BKN140
     FM031500 27012G17KT P6SM SCT070 BKN100
      TEMPO 0316/0318 6SM -SHRA BKN070
     FM031800 29016G26KT P6SM VCSH SCT050 BKN070
     FM032000 34018G28KT P6SM SCT090
     FM040200 36012KT P6SM SCT100
     FM040800 36008KT P6SM SKC=

USA.gov is the U.S. government's official web portal to all federal, state and local government web resources and services.